Time;durP1;ratioP1;P1;durP2;ratioP2;P2;SDS_P1;SDS_P2;PMS_P1;PMS_P2;Temp;Humidity;BMP_temperature;BMP_pressure;BME280_temperature;BME280_humidity;BME280_pressure;Samples;Min_cycle;Max_cycle;Signal;HPM_P1;HPM_P2
2022/01/30 00:00:10;;;;;;;20.83;13.03;;;;;;;-2.05;90.29;101171.50;4877116;29;20052;-80
2022/01/30 00:02:36;;;;;;;27.57;13.27;;;;;;;-2.07;91.27;101173.00;4876977;29;20047;-77
2022/01/30 00:05:01;;;;;;;21.60;13.23;;;;;;;-2.09;91.57;101171.94;4876794;29;20033;-77
2022/01/30 00:07:27;;;;;;;25.90;14.33;;;;;;;-2.10;91.86;101157.53;4861316;29;20041;-78
2022/01/30 00:09:52;;;;;;;21.83;13.30;;;;;;;-2.07;91.50;101173.88;4927874;29;20518;-75
2022/01/30 00:12:24;;;;;;;26.50;14.00;;;;;;;-2.19;91.29;101162.56;4936944;28;20494;-80
2022/01/30 00:14:54;;;;;;;24.03;14.10;;;;;;;-2.20;91.39;101169.25;4993510;28;20064;-80
2022/01/30 00:17:24;;;;;;;25.27;14.40;;;;;;;-2.32;92.24;101147.78;4990254;28;20070;-78
2022/01/30 00:19:58;;;;;;;23.50;14.20;;;;;;;-2.30;93.13;101152.25;4994003;28;20030;-80
2022/01/30 00:22:41;;;;;;;25.07;13.97;;;;;;;-2.33;93.60;101149.44;4976447;28;20048;-80
2022/01/30 00:25:15;;;;;;;23.67;14.90;;;;;;;-2.31;94.23;101147.06;4975430;28;20133;-78
2022/01/30 00:27:48;;;;;;;26.20;14.87;;;;;;;-2.35;94.26;101148.38;4993543;28;20396;-76
2022/01/30 00:30:15;;;;;;;23.00;14.43;;;;;;;-2.60;93.84;101086.91;4993611;28;20030;-77
2022/01/30 00:32:41;;;;;;;25.13;14.40;;;;;;;-2.32;93.32;101118.34;4976063;28;20044;-77
2022/01/30 00:35:09;;;;;;;24.30;14.67;;;;;;;-2.29;93.79;101118.63;4993175;28;20030;-78
2022/01/30 00:37:39;;;;;;;24.93;14.67;;;;;;;-2.25;92.88;101116.44;4992600;28;20026;-78
2022/01/30 00:40:06;;;;;;;25.23;15.20;;;;;;;-2.28;93.07;101117.00;4992022;28;20030;-75
2022/01/30 00:42:32;;;;;;;25.90;16.33;;;;;;;-2.34;93.30;101109.72;4993353;28;20034;-78
2022/01/30 00:44:57;;;;;;;27.97;15.20;;;;;;;-2.27;93.62;101116.25;4975696;28;20039;-74
2022/01/30 00:50:45;;;;;;;24.60;14.50;;;;;;;-2.18;93.15;101117.19;5236132;23;20053;-75
2022/01/30 00:53:11;;;;;;;25.30;14.50;;;;;;;-2.23;93.37;101114.94;5013011;28;20038;-72
2022/01/30 00:55:37;;;;;;;25.83;13.83;;;;;;;-2.38;93.83;101092.47;5012638;28;20049;-73
2022/01/30 00:58:03;;;;;;;25.70;13.17;;;;;;;-2.26;93.91;101107.94;5012613;28;20040;-74
2022/01/30 01:00:30;;;;;;;26.90;14.17;;;;;;;-2.25;92.94;101081.91;5012511;28;20034;-73
2022/01/30 01:02:56;;;;;;;27.60;14.30;;;;;;;-2.36;93.01;101072.38;4995185;28;20033;-75
2022/01/30 01:05:21;;;;;;;25.67;14.33;;;;;;;-2.29;93.03;101078.19;5012854;28;20029;-73
2022/01/30 01:07:49;;;;;;;27.00;14.87;;;;;;;-2.16;92.56;101071.78;5012319;28;20069;-76
2022/01/30 01:23:29;;;;;;;24.40;13.07;;;;;;;-2.56;92.42;101033.38;4932431;29;20039;-73
2022/01/30 01:25:56;;;;;;;23.87;13.63;;;;;;;-2.68;92.00;101038.13;4932463;29;20123;-74
2022/01/30 01:28:23;;;;;;;23.20;14.33;;;;;;;-2.86;91.95;101018.63;4932449;29;20466;-76
2022/01/30 01:30:48;;;;;;;22.80;13.50;;;;;;;-2.81;93.30;101014.91;4932513;29;20530;-77
2022/01/30 01:33:14;;;;;;;26.23;14.13;;;;;;;-2.67;94.35;101006.16;4875660;29;20069;-75
2022/01/30 01:35:40;;;;;;;23.10;13.43;;;;;;;-2.85;94.35;100973.28;4875747;29;20041;-75
2022/01/30 01:38:11;;;;;;;24.17;13.80;;;;;;;-2.60;94.34;101013.59;4875575;29;20063;-76
2022/01/30 01:40:37;;;;;;;22.83;13.90;;;;;;;-2.60;93.54;101009.44;4875766;29;20036;-73
2022/01/30 01:43:02;;;;;;;22.93;13.93;;;;;;;-2.77;93.52;100992.63;4875647;29;20037;-74
2022/01/30 01:45:34;;;;;;;20.80;12.63;;;;;;;-2.68;93.82;100994.25;4875762;29;20069;-78
2022/01/30 01:48:03;;;;;;;24.70;13.73;;;;;;;-2.71;94.11;100988.91;4875729;29;20032;-77
2022/01/30 01:50:43;;;;;;;23.20;14.40;;;;;;;-2.69;94.36;100987.41;4880247;29;20507;-74
2022/01/30 01:53:12;;;;;;;23.57;14.17;;;;;;;-2.74;94.66;100976.88;4878609;29;20767;-76
2022/01/30 01:55:38;;;;;;;22.15;13.30;;;;;;;-2.74;94.61;100973.44;4894133;29;20051;-75
2022/01/30 01:58:05;;;;;;;27.03;13.57;;;;;;;-2.72;94.48;100974.50;4958846;28;20034;-75
2022/01/30 02:00:32;;;;;;;23.87;13.80;;;;;;;-2.62;94.04;100972.13;4970386;28;20026;-74
2022/01/30 02:02:58;;;;;;;25.03;13.90;;;;;;;-2.80;93.79;100925.75;4970288;28;20041;-74
2022/01/30 02:05:28;;;;;;;23.40;13.10;;;;;;;-2.57;93.92;100955.75;5022894;28;20046;-75
2022/01/30 02:10:36;;;;;;;22.43;13.67;;;;;;;-2.48;93.30;100973.44;5007562;28;20018;-75
2022/01/30 02:24:14;;;;;;;25.83;13.83;;;;;;;-2.74;92.55;100953.22;4950799;29;20500;-76
2022/01/30 02:26:43;;;;;;;29.67;14.10;;;;;;;-3.12;93.57;100941.13;4950538;28;20043;-77
2022/01/30 02:29:09;;;;;;;27.15;14.23;;;;;;;-3.12;94.06;100954.66;4950491;29;20039;-76
2022/01/30 02:31:38;;;;;;;26.50;14.23;;;;;;;-3.17;95.35;100957.47;4952605;28;20444;-75
2022/01/30 02:34:03;;;;;;;23.42;13.80;;;;;;;-3.15;95.39;100948.44;4965193;28;20517;-78
2022/01/30 02:36:29;;;;;;;24.73;14.00;;;;;;;-2.99;95.04;100955.88;4969409;28;20085;-78
2022/01/30 02:38:58;;;;;;;28.00;14.87;;;;;;;-2.98;95.44;100953.50;4969454;28;20038;-73
2022/01/30 02:41:23;;;;;;;25.05;14.70;;;;;;;-2.79;94.93;100948.63;4969338;28;20037;-74
2022/01/30 02:44:05;;;;;;;28.10;14.93;;;;;;;-2.74;94.15;100943.13;4969255;28;20050;-74
2022/01/30 02:46:33;;;;;;;24.03;14.40;;;;;;;-2.75;93.58;100944.75;4969344;28;20138;-76
2022/01/30 02:49:12;;;;;;;24.52;14.00;;;;;;;-2.80;93.26;100933.31;4969245;28;20109;-76
2022/01/30 02:51:46;;;;;;;25.23;13.27;;;;;;;-3.07;93.71;100929.84;4985568;28;20046;-76
2022/01/30 02:54:13;;;;;;;24.57;14.13;;;;;;;-3.05;94.24;100941.00;5011367;28;20041;-75
2022/01/30 02:56:40;;;;;;;27.90;14.70;;;;;;;-3.21;94.30;100915.00;5010861;28;20033;-76
2022/01/30 02:59:05;;;;;;;25.47;14.37;;;;;;;-3.74;95.15;100837.50;5010604;28;20080;-76
2022/01/30 03:01:31;;;;;;;25.77;14.77;;;;;;;-3.11;95.53;100922.72;4993059;28;20026;-76
2022/01/30 03:03:57;;;;;;;28.43;14.07;;;;;;;-3.04;95.32;100915.03;4992584;28;20022;-75
2022/01/30 03:06:22;;;;;;;28.80;14.57;;;;;;;-3.14;95.72;100918.28;5010625;28;20022;-77
2022/01/30 03:08:48;;;;;;;23.73;13.57;;;;;;;-3.25;96.19;100894.47;5011021;28;20030;-77
2022/01/30 03:11:13;;;;;;;28.03;15.20;;;;;;;-3.20;96.65;100907.56;5010873;28;20173;-76
2022/01/30 03:13:38;;;;;;;26.83;13.87;;;;;;;-3.18;96.71;100895.97;5010475;28;20030;-76
2022/01/30 03:16:04;;;;;;;25.73;14.50;;;;;;;-3.27;95.67;100870.69;5010723;28;20030;-76
2022/01/30 03:18:33;;;;;;;25.87;13.87;;;;;;;-3.22;94.79;100881.25;5010472;28;20105;-77
2022/01/30 03:20:58;;;;;;;25.50;14.40;;;;;;;-3.31;94.82;100867.75;5010479;28;20030;-77
2022/01/30 03:23:24;;;;;;;27.43;14.63;;;;;;;-3.27;94.82;100879.91;5010656;28;20037;-75
2022/01/30 03:25:55;;;;;;;25.97;14.93;;;;;;;-3.35;95.46;100879.16;5010538;28;20025;-75
2022/01/30 03:28:20;;;;;;;24.87;13.97;;;;;;;-3.59;95.79;100830.56;5010035;28;20040;-75
2022/01/30 03:30:48;;;;;;;24.33;13.80;;;;;;;-3.32;95.08;100871.00;5011295;28;20420;-75
2022/01/30 03:33:14;;;;;;;29.93;14.53;;;;;;;-3.25;94.04;100873.41;5014278;28;20026;-75
2022/01/30 03:35:40;;;;;;;22.23;13.30;;;;;;;-3.15;93.20;100881.13;5013891;28;20037;-75
2022/01/30 03:38:05;;;;;;;23.77;13.33;;;;;;;-3.09;93.32;100893.44;5013752;28;20028;-75
2022/01/30 03:40:31;;;;;;;26.53;14.63;;;;;;;-3.06;93.91;100880.25;4980199;28;20507;-76
2022/01/30 03:42:56;;;;;;;25.07;13.57;;;;;;;-3.38;93.49;100797.19;5013625;28;20033;-75
2022/01/30 03:45:22;;;;;;;22.87;12.37;;;;;;;-2.84;93.44;100871.47;5014290;28;20037;-72
2022/01/30 03:47:48;;;;;;;25.67;13.93;;;;;;;-3.07;93.14;100810.28;5013598;28;20029;-74
2022/01/30 03:50:13;;;;;;;27.97;13.43;;;;;;;-2.81;93.31;100851.53;5016808;28;20470;-75
2022/01/30 03:52:39;;;;;;;26.40;14.07;;;;;;;-2.71;93.29;100860.91;5033910;28;20120;-75
2022/01/30 03:55:05;;;;;;;25.33;13.97;;;;;;;-2.71;93.15;100855.84;5033358;28;20112;-76
2022/01/30 03:57:30;;;;;;;24.40;13.97;;;;;;;-2.71;93.03;100862.56;5033129;28;20029;-76
2022/01/30 03:59:57;;;;;;;25.23;15.17;;;;;;;-3.27;93.47;100797.47;5033525;28;20394;-75
2022/01/30 04:02:22;;;;;;;26.67;14.03;;;;;;;-3.04;93.94;100858.53;5033242;28;20029;-76
2022/01/30 04:04:48;;;;;;;24.70;13.90;;;;;;;-3.18;nan;100859.72;5015535;28;20748;-79
2022/01/30 04:07:13;;;;;;;25.70;14.17;;;;;;;-3.32;95.53;100858.38;5033089;28;20025;-78
2022/01/30 04:09:39;;;;;;;25.97;13.60;;;;;;;-3.43;95.50;100858.22;5033263;28;20086;-75
2022/01/30 04:12:05;;;;;;;25.73;13.90;;;;;;;-3.61;95.50;100821.06;5032816;28;20594;-73
2022/01/30 04:14:31;;;;;;;26.43;14.40;;;;;;;-3.38;96.44;100850.19;5033512;28;20504;-75
2022/01/30 04:16:57;;;;;;;26.17;13.63;;;;;;;-3.44;97.42;100845.44;5023681;28;20026;-77
2022/01/30 04:19:22;;;;;;;26.10;14.67;;;;;;;-4.08;97.90;100722.28;5013060;28;20026;-75
2022/01/30 04:21:48;;;;;;;25.13;14.10;;;;;;;-3.19;97.84;100848.75;5013323;28;20109;-75
2022/01/30 04:24:13;;;;;;;23.30;13.47;;;;;;;-3.06;97.24;100843.25;5013379;28;20034;-76
2022/01/30 04:26:39;;;;;;;22.10;12.93;;;;;;;-3.08;97.35;100824.50;5012883;28;20034;-74
2022/01/30 04:29:05;;;;;;;23.67;14.10;;;;;;;-2.99;96.48;100827.94;5013504;28;20126;-75
2022/01/30 04:31:30;;;;;;;29.57;14.33;;;;;;;-3.00;96.13;100822.75;5013335;28;20037;-74
2022/01/30 04:33:56;;;;;;;24.80;14.17;;;;;;;-2.82;95.42;100831.19;5013438;28;20033;-76
2022/01/30 04:36:28;;;;;;;23.90;13.53;;;;;;;-2.90;94.63;100807.72;5009009;28;20034;-74
2022/01/30 04:39:34;;;;;;;23.47;13.20;;;;;;;-3.02;94.44;100788.88;4994192;28;20105;-73
2022/01/30 04:42:10;;;;;;;23.97;13.33;;;;;;;-2.65;94.00;100830.28;5011759;28;20029;-75
2022/01/30 04:57:59;;;;;;;21.50;11.77;;;;;;;-2.50;91.69;100815.69;5032401;28;20101;-74
2022/01/30 05:07:50;;;;;;;24.87;12.77;;;;;;;-2.67;92.59;100836.81;4996073;28;20042;-72
2022/01/30 05:10:16;;;;;;;21.77;12.73;;;;;;;-2.76;92.83;100845.28;4977499;28;20046;-74
2022/01/30 05:12:48;;;;;;;25.77;12.80;;;;;;;-2.69;92.54;100839.22;5012009;28;20044;-72
2022/01/30 05:15:17;;;;;;;25.37;13.43;;;;;;;-2.84;92.24;100810.84;5012185;28;20037;-71
2022/01/30 05:17:43;;;;;;;23.07;13.27;;;;;;;-2.70;92.05;100823.91;4994855;28;20030;-74
2022/01/30 05:20:10;;;;;;;23.23;12.23;;;;;;;-2.73;91.79;100816.03;5012009;28;20037;-74
2022/01/30 05:22:36;;;;;;;21.70;12.87;;;;;;;-2.87;92.38;100820.63;5012229;28;20038;-74
2022/01/30 05:25:02;;;;;;;25.27;13.47;;;;;;;-3.02;92.95;100840.25;5011779;28;20021;-74
2022/01/30 05:27:28;;;;;;;25.63;13.43;;;;;;;-3.09;93.15;100830.31;5012020;28;20528;-74
2022/01/30 05:29:54;;;;;;;24.23;12.33;;;;;;;-3.25;93.02;100836.41;5011359;28;20038;-74
2022/01/30 05:32:19;;;;;;;23.33;12.87;;;;;;;-3.40;91.88;100827.34;5011971;28;20083;-77
2022/01/30 05:34:45;;;;;;;25.27;12.97;;;;;;;-3.57;92.29;100813.94;5011790;28;20030;-74
2022/01/30 05:37:16;;;;;;;22.43;12.70;;;;;;;-3.90;92.75;100778.69;5011783;28;20176;-72
2022/01/30 05:39:42;;;;;;;27.73;14.87;;;;;;;-3.60;93.95;100825.34;5011791;28;20472;-73
2022/01/30 05:42:08;;;;;;;30.80;17.90;;;;;;;-3.59;94.26;100823.00;5011711;28;20104;-75
2022/01/30 05:44:47;;;;;;;30.93;16.10;;;;;;;-3.45;94.50;100826.88;5011584;28;20499;-73
2022/01/30 05:47:22;;;;;;;29.88;16.42;;;;;;;-3.39;93.92;100815.59;5011668;28;20030;-74
2022/01/30 05:49:48;;;;;;;31.17;16.60;;;;;;;-3.30;94.20;100809.81;5010034;28;20049;-73
2022/01/30 05:52:14;;;;;;;29.37;17.63;;;;;;;-3.22;94.15;100805.50;5012844;28;20073;-76
2022/01/30 05:54:39;;;;;;;30.00;18.87;;;;;;;-3.30;93.78;100777.00;5030608;28;20119;-71
2022/01/30 05:57:05;;;;;;;28.50;16.73;;;;;;;-3.10;93.21;100799.13;5013515;28;20033;-73
2022/01/30 05:59:30;;;;;;;23.53;14.70;;;;;;;-3.12;92.55;100782.91;5031189;28;20033;-73
2022/01/30 06:01:56;;;;;;;26.70;15.77;;;;;;;-3.09;92.10;100785.75;5021199;28;20459;-75
2022/01/30 06:04:21;;;;;;;26.93;16.13;;;;;;;-3.04;91.47;100776.09;5009446;28;20065;-75
2022/01/30 06:06:50;;;;;;;28.53;15.10;;;;;;;-3.14;91.54;100758.25;5004966;28;20083;-73
2022/01/30 06:11:42;;;;;;;28.67;14.23;;;;;;;-3.13;91.54;100750.84;5006106;28;20073;-76
2022/01/30 06:14:07;;;;;;;25.80;14.70;;;;;;;-3.21;92.71;100743.28;5009075;28;20052;-72
2022/01/30 06:16:32;;;;;;;27.70;14.40;;;;;;;-3.13;92.61;100745.81;5010956;28;20449;-75
2022/01/30 06:18:58;;;;;;;24.83;13.30;;;;;;;-3.14;93.05;100750.69;4993088;28;20018;-72
2022/01/30 06:21:23;;;;;;;24.27;12.80;;;;;;;-3.13;92.56;100738.22;5010984;28;20512;-73
2022/01/30 06:23:49;;;;;;;24.20;13.57;;;;;;;-3.18;93.09;100751.13;5011279;28;20034;-72
2022/01/30 06:26:15;;;;;;;25.90;14.33;;;;;;;-3.10;93.76;100740.16;5011112;28;20373;-73
2022/01/30 06:28:40;;;;;;;24.63;13.20;;;;;;;-3.10;93.75;100735.97;5010822;28;20026;-72
2022/01/30 06:31:07;;;;;;;26.43;14.73;;;;;;;-2.96;93.76;100733.88;5010855;28;20018;-76
2022/01/30 06:33:32;;;;;;;25.70;14.23;;;;;;;-2.80;93.89;100724.47;4993232;28;20030;-74
2022/01/30 06:35:58;;;;;;;21.43;12.27;;;;;;;-2.74;93.61;100718.22;5010914;28;20036;-76
2022/01/30 06:38:23;;;;;;;21.93;13.10;;;;;;;-2.76;94.27;100706.31;5010967;28;20033;-73
2022/01/30 06:40:49;;;;;;;18.80;11.20;;;;;;;-2.48;93.69;100725.69;4993328;28;20450;-72
2022/01/30 06:43:14;;;;;;;21.37;12.00;;;;;;;-2.47;93.56;100709.78;5010871;28;20564;-72
2022/01/30 06:45:42;;;;;;;20.67;11.53;;;;;;;-2.40;93.52;100703.66;5010811;28;20030;-72
2022/01/30 06:48:09;;;;;;;21.97;11.80;;;;;;;-2.48;93.73;100681.09;5010631;28;20088;-73
2022/01/30 06:50:34;;;;;;;18.67;11.27;;;;;;;-2.37;93.36;100679.53;5010347;28;20042;-76
2022/01/30 06:53:00;;;;;;;21.40;12.03;;;;;;;-2.31;93.36;100676.69;5010724;28;20037;-73
2022/01/30 06:55:26;;;;;;;22.40;13.30;;;;;;;-2.21;93.09;100676.75;5010924;28;20026;-73
2022/01/30 06:57:51;;;;;;;20.30;12.03;;;;;;;-2.23;92.77;100675.75;4993094;28;20511;-71
2022/01/30 07:00:18;;;;;;;20.50;12.17;;;;;;;-2.22;92.90;100679.16;5010708;28;20037;-75
2022/01/30 07:02:44;;;;;;;22.47;11.60;;;;;;;-1.99;92.76;100694.78;4977103;28;20018;-76
2022/01/30 07:05:10;;;;;;;20.43;11.13;;;;;;;-2.22;91.58;100621.00;5012362;28;20389;-72
2022/01/30 07:07:36;;;;;;;20.10;13.07;;;;;;;-1.65;91.19;100681.75;5014727;28;20036;-78
2022/01/30 07:10:06;;;;;;;22.47;12.97;;;;;;;-1.57;90.96;100679.88;4996712;28;20026;-73
2022/01/30 07:12:31;;;;;;;23.33;12.60;;;;;;;-1.36;90.36;100693.56;5014415;28;20078;-73
2022/01/30 07:14:57;;;;;;;28.70;16.50;;;;;;;-1.33;88.92;100712.44;5014521;28;20508;-73
2022/01/30 07:17:22;;;;;;;23.50;13.20;;;;;;;-1.29;88.66;100728.81;5014234;28;20077;-76
2022/01/30 07:19:48;;;;;;;22.30;12.33;;;;;;;-1.64;89.83;100722.38;5014294;28;20069;-74
2022/01/30 07:22:15;;;;;;;23.63;12.90;;;;;;;-1.64;90.93;100729.97;4996910;28;20029;-74
2022/01/30 07:24:40;;;;;;;23.30;12.40;;;;;;;-1.59;90.93;100748.09;5014415;28;20017;-75
2022/01/30 07:27:06;;;;;;;22.00;12.93;;;;;;;-1.56;91.81;100735.72;5014228;28;20053;-72
2022/01/30 07:29:31;;;;;;;20.20;12.53;;;;;;;-1.42;91.11;100736.06;5014202;28;20029;-77
2022/01/30 07:31:57;;;;;;;20.70;13.53;;;;;;;-1.36;90.33;100723.94;5012368;28;20053;-74
2022/01/30 07:34:22;;;;;;;21.70;12.73;;;;;;;-1.29;90.10;100717.78;5009457;28;20030;-74
2022/01/30 07:36:49;;;;;;;21.67;12.93;;;;;;;-1.17;90.44;100726.47;5011426;28;20025;-74
2022/01/30 07:39:17;;;;;;;23.03;12.97;;;;;;;-1.06;89.97;100729.91;5014080;28;20026;-72
2022/01/30 07:41:43;;;;;;;22.80;13.43;;;;;;;-1.01;90.01;100724.50;5013339;28;20472;-74
2022/01/30 07:44:09;;;;;;;21.10;11.43;;;;;;;-0.92;88.66;100708.31;5013488;28;20108;-74
2022/01/30 07:46:35;;;;;;;17.47;9.80;;;;;;;-1.00;87.44;100697.50;5014288;28;20431;-73
2022/01/30 07:49:00;;;;;;;19.47;11.57;;;;;;;-0.89;87.06;100684.13;5016457;28;20048;-72
2022/01/30 07:51:26;;;;;;;19.40;11.03;;;;;;;-0.59;87.62;100677.34;5022879;28;20041;-75
2022/01/30 07:53:52;;;;;;;22.03;12.67;;;;;;;-0.29;87.39;100665.47;5022234;28;20697;-75
2022/01/30 07:56:17;;;;;;;22.73;12.90;;;;;;;-0.32;85.69;100642.41;5024015;28;20033;-72
2022/01/30 07:58:43;;;;;;;20.03;11.43;;;;;;;-0.02;84.44;100671.06;5021091;28;20041;-72
2022/01/30 08:01:08;;;;;;;16.87;9.23;;;;;;;-0.04;82.92;100675.13;5005404;28;20030;-74
2022/01/30 08:03:35;;;;;;;15.90;9.43;;;;;;;-0.22;83.72;100657.63;5004137;28;20553;-73
2022/01/30 08:06:01;;;;;;;13.83;8.63;;;;;;;-0.02;83.72;100655.84;5006052;28;20025;-75
2022/01/30 08:08:46;;;;;;;13.53;9.00;;;;;;;0.29;82.38;100659.22;5006057;28;20522;-74
2022/01/30 08:11:12;;;;;;;13.83;8.60;;;;;;;0.23;81.90;100657.84;4978715;28;20478;-71
2022/01/30 08:13:37;;;;;;;15.00;9.33;;;;;;;0.34;81.51;100643.47;4980973;28;20053;-73
2022/01/30 08:16:04;;;;;;;16.50;9.33;;;;;;;0.26;81.54;100646.28;4961339;28;20152;-74
2022/01/30 08:18:30;;;;;;;16.87;9.50;;;;;;;0.31;81.91;100636.47;4969482;28;20030;-75
2022/01/30 08:20:56;;;;;;;14.80;8.73;;;;;;;0.58;80.68;100645.44;4975784;28;20050;-73
2022/01/30 08:23:23;;;;;;;14.33;7.67;;;;;;;0.69;80.75;100638.66;4973088;28;20046;-72
2022/01/30 08:25:51;;;;;;;16.03;8.40;;;;;;;0.71;80.58;100637.16;4961336;28;20038;-73
2022/01/30 08:28:16;;;;;;;36.27;21.40;;;;;;;0.87;80.17;100626.50;4976489;28;20432;-75
2022/01/30 08:30:42;;;;;;;53.97;27.70;;;;;;;0.94;79.36;100598.25;4968258;28;20043;-75
2022/01/30 08:33:07;;;;;;;14.13;8.00;;;;;;;0.94;77.97;100561.78;4976205;28;20556;-75
2022/01/30 08:35:33;;;;;;;13.87;7.73;;;;;;;1.36;77.52;100601.44;4976128;28;20481;-76
2022/01/30 08:37:59;;;;;;;11.53;7.37;;;;;;;1.35;74.80;100565.72;4975813;28;20039;-77
2022/01/30 08:40:26;;;;;;;22.63;12.90;;;;;;;1.43;76.37;100562.97;4974799;28;20097;-77
2022/01/30 08:42:51;;;;;;;12.33;6.60;;;;;;;1.76;72.64;100586.59;4997263;28;20049;-72
2022/01/30 08:45:18;;;;;;;16.13;8.00;;;;;;;1.81;73.92;100586.06;5008057;28;20030;-72
2022/01/30 08:47:46;;;;;;;10.20;6.40;;;;;;;1.75;72.12;100550.88;5012150;28;20014;-74
2022/01/30 08:50:14;;;;;;;13.63;9.30;;;;;;;1.93;72.65;100570.03;4996849;28;20493;-72
2022/01/30 08:52:43;;;;;;;21.47;14.30;;;;;;;1.94;72.81;100565.81;4992450;28;20037;-74
2022/01/30 08:55:10;;;;;;;10.77;6.13;;;;;;;1.87;68.95;100533.03;4975390;28;20042;-73
2022/01/30 08:57:36;;;;;;;13.40;8.87;;;;;;;1.95;69.21;100580.31;4991447;28;20049;-75
2022/01/30 09:00:06;;;;;;;14.53;7.97;;;;;;;1.97;69.29;100591.53;4992347;28;20497;-73
2022/01/30 09:02:31;;;;;;;12.05;5.80;;;;;;;2.02;69.23;100591.84;4992403;28;20074;-75
2022/01/30 09:04:56;;;;;;;9.47;6.07;;;;;;;1.90;68.42;100596.94;4992313;28;20065;-71
2022/01/30 09:07:22;;;;;;;12.20;6.87;;;;;;;1.92;69.52;100606.44;4991593;28;20029;-72
2022/01/30 09:09:47;;;;;;;10.50;5.80;;;;;;;1.99;67.98;100612.00;4991753;28;20026;-72
2022/01/30 09:12:13;;;;;;;9.60;5.30;;;;;;;1.87;68.31;100589.97;4971194;28;20022;-74
2022/01/30 09:14:41;;;;;;;9.33;5.83;;;;;;;1.92;67.84;100598.81;4992043;28;20449;-72
2022/01/30 09:17:15;;;;;;;9.27;5.33;;;;;;;1.98;67.53;100593.28;4974368;28;20037;-73
2022/01/30 09:19:42;;;;;;;7.73;4.43;;;;;;;1.82;67.36;100595.47;4991625;28;20026;-71
2022/01/30 09:22:09;;;;;;;12.50;6.73;;;;;;;1.96;67.38;100588.84;4974202;28;20030;-73
2022/01/30 09:24:35;;;;;;;11.03;6.47;;;;;;;2.02;68.22;100587.66;4991211;28;20488;-74
2022/01/30 09:27:01;;;;;;;14.60;9.13;;;;;;;2.08;67.36;100570.25;4980130;28;20125;-74
2022/01/30 09:29:28;;;;;;;19.77;10.27;;;;;;;2.18;67.62;100571.81;5010816;28;20053;-71
2022/01/30 09:31:54;;;;;;;21.30;11.13;;;;;;;2.23;68.38;100551.75;5012378;28;20164;-74
2022/01/30 09:34:20;;;;;;;14.50;9.47;;;;;;;2.15;68.44;100527.41;5011679;28;20112;-74
2022/01/30 09:36:45;;;;;;;15.47;8.57;;;;;;;2.25;67.20;100517.97;5011704;28;20025;-75
2022/01/30 09:39:11;;;;;;;16.13;8.17;;;;;;;2.36;66.51;100522.97;5011662;28;20083;-72
2022/01/30 09:41:37;;;;;;;14.10;9.67;;;;;;;2.29;65.49;100502.91;5011843;28;20416;-74
2022/01/30 09:44:02;;;;;;;14.53;6.30;;;;;;;2.39;65.37;100506.22;5011407;28;20481;-71
2022/01/30 09:46:29;;;;;;;9.70;6.00;;;;;;;2.38;65.23;100486.63;5011509;28;20033;-73
2022/01/30 09:48:57;;;;;;;12.17;6.20;;;;;;;2.34;65.26;100461.69;5011644;28;20577;-73
2022/01/30 09:51:23;;;;;;;14.50;6.50;;;;;;;2.49;66.21;100489.03;4993662;28;20046;-73
2022/01/30 09:53:49;;;;;;;8.43;5.40;;;;;;;2.51;64.74;100478.16;5011272;28;20155;-74
2022/01/30 09:56:16;;;;;;;13.17;6.60;;;;;;;2.56;64.56;100473.38;5011589;28;20033;-73
2022/01/30 09:58:41;;;;;;;13.90;7.10;;;;;;;2.69;65.08;100467.44;5011532;28;20033;-75
2022/01/30 10:01:07;;;;;;;10.63;7.13;;;;;;;2.68;67.10;100463.13;5011335;28;20034;-71
2022/01/30 10:03:32;;;;;;;10.93;7.40;;;;;;;2.62;66.82;100443.22;5006581;28;20026;-74
2022/01/30 10:06:15;;;;;;;14.87;9.03;;;;;;;2.80;69.40;100443.56;5008722;28;20022;-74
2022/01/30 10:08:44;;;;;;;15.07;9.90;;;;;;;2.75;69.97;100430.53;4986761;28;20552;-74
2022/01/30 10:11:32;;;;;;;11.97;7.00;;;;;;;2.82;69.20;100408.88;5004467;28;20026;-74
2022/01/30 10:14:05;;;;;;;11.73;7.03;;;;;;;2.90;69.41;100419.56;5009019;28;20491;-75
2022/01/30 10:16:43;;;;;;;13.03;7.37;;;;;;;2.61;69.51;100359.88;5004757;28;20034;-75
2022/01/30 10:19:17;;;;;;;11.50;7.07;;;;;;;2.98;68.73;100413.34;5008924;28;20026;-71
2022/01/30 10:21:44;;;;;;;12.33;7.30;;;;;;;2.89;69.15;100374.47;5004358;28;20095;-73
2022/01/30 10:24:30;;;;;;;12.57;6.90;;;;;;;2.74;69.78;100344.63;4969134;28;20453;-71
2022/01/30 10:26:59;;;;;;;9.30;6.23;;;;;;;3.05;69.58;100406.97;4969166;28;20043;-74
2022/01/30 10:29:27;;;;;;;10.05;7.18;;;;;;;3.09;69.08;100411.50;4964795;28;20043;-74
2022/01/30 10:32:07;;;;;;;11.88;7.07;;;;;;;3.17;69.38;100402.66;4968265;28;20111;-73
2022/01/30 10:34:35;;;;;;;13.27;7.03;;;;;;;3.19;69.67;100405.31;4967266;28;20106;-76
2022/01/30 10:37:13;;;;;;;11.15;5.90;;;;;;;3.18;68.26;100390.81;4963444;28;20035;-72
2022/01/30 10:39:54;;;;;;;12.60;7.33;;;;;;;3.17;68.25;100402.66;4966496;28;20049;-72
2022/01/30 10:42:30;;;;;;;11.47;5.80;;;;;;;3.03;67.31;100347.34;4967209;28;20418;-74
2022/01/30 10:44:55;;;;;;;11.32;7.35;;;;;;;3.23;67.73;100377.56;4966406;28;20038;-76
2022/01/30 10:47:21;;;;;;;10.20;6.90;;;;;;;3.01;67.72;100329.34;4969250;28;20033;-74
2022/01/30 10:49:47;;;;;;;14.18;8.32;;;;;;;3.36;66.77;100352.84;4968570;28;20051;-73
2022/01/30 10:52:13;;;;;;;11.68;7.45;;;;;;;3.48;63.60;100351.06;4968682;28;20090;-73
2022/01/30 10:54:40;;;;;;;21.58;12.32;;;;;;;3.28;62.62;100303.88;4975023;28;20129;-73
2022/01/30 10:57:07;;;;;;;11.00;6.78;;;;;;;3.60;62.78;100343.31;5010146;28;20034;-70
2022/01/30 10:59:34;;;;;;;8.73;5.13;;;;;;;3.60;62.51;100339.84;5009937;28;20029;-70
2022/01/30 11:02:18;;;;;;;13.53;5.67;;;;;;;3.64;61.76;100339.25;5010135;28;20041;-74
2022/01/30 11:04:45;;;;;;;8.07;5.40;;;;;;;3.71;62.18;100333.75;4987173;28;20720;-73
2022/01/30 11:07:11;;;;;;;10.73;5.90;;;;;;;3.81;62.47;100320.75;5010387;28;20028;-74
2022/01/30 11:12:06;;;;;;;25.58;7.30;;;;;;;3.96;62.60;100300.41;5010403;28;20118;-74
2022/01/30 11:17:16;;;;;;;9.90;5.47;;;;;;;4.09;61.92;100275.56;5005124;28;19914;-73
2022/01/30 11:19:49;;;;;;;8.35;5.18;;;;;;;4.08;62.92;100266.16;5009804;28;20030;-74
2022/01/30 11:22:19;;;;;;;11.60;6.43;;;;;;;4.29;63.19;100261.44;5007526;28;20111;-74
2022/01/30 11:25:08;;;;;;;9.43;5.80;;;;;;;4.55;62.13;100262.97;5015936;28;20463;-72
2022/01/30 11:27:34;;;;;;;11.20;6.43;;;;;;;4.83;62.84;100244.94;5017833;28;20037;-75
2022/01/30 11:30:01;;;;;;;9.13;5.95;;;;;;;5.08;61.67;100219.84;5015879;28;20847;-74
2022/01/30 11:32:27;;;;;;;9.48;6.03;;;;;;;5.39;62.48;100211.28;5005481;28;20030;-74
2022/01/30 11:34:54;;;;;;;13.63;6.95;;;;;;;5.37;62.11;100172.81;5005991;28;20030;-72
2022/01/30 11:37:23;;;;;;;9.65;6.75;;;;;;;5.70;62.84;100179.63;5009670;28;20559;-74
2022/01/30 11:39:52;;;;;;;9.83;6.93;;;;;;;5.75;61.46;100176.47;5003375;28;20031;-75
2022/01/30 11:42:23;;;;;;;10.55;5.97;;;;;;;5.73;61.77;100154.13;5005213;28;20269;-75
2022/01/30 11:45:03;;;;;;;9.73;6.78;;;;;;;5.87;61.97;100160.88;4974407;28;20065;-72
2022/01/30 11:47:42;;;;;;;7.85;5.78;;;;;;;5.90;62.26;100145.63;5008740;28;20041;-74
2022/01/30 11:50:08;;;;;;;10.70;6.43;;;;;;;5.95;60.30;100141.59;5008467;28;20069;-72
2022/01/30 11:52:45;;;;;;;7.60;4.95;;;;;;;5.85;60.16;100125.72;5008784;28;20038;-75
2022/01/30 11:55:40;;;;;;;9.52;5.95;;;;;;;5.92;61.01;100132.88;5007630;28;20026;-72
2022/01/30 11:58:06;;;;;;;10.65;6.55;;;;;;;6.12;59.67;100123.69;5010763;28;20028;-74
2022/01/30 12:00:37;;;;;;;10.25;6.53;;;;;;;6.18;59.87;100103.47;5013164;28;20034;-76
2022/01/30 12:03:22;;;;;;;9.02;6.07;;;;;;;6.37;58.59;100094.09;5022936;28;20073;-72
2022/01/30 12:05:48;;;;;;;10.50;6.43;;;;;;;6.47;58.24;100098.88;5023134;28;20057;-75
2022/01/30 12:08:41;;;;;;;10.25;5.82;;;;;;;6.68;57.19;100103.22;5022293;28;20057;-74
2022/01/30 12:11:36;;;;;;;8.65;6.18;;;;;;;6.75;57.73;100107.84;5022773;28;20049;-74
2022/01/30 12:14:07;;;;;;;11.27;6.60;;;;;;;6.77;57.60;100101.09;5021158;28;20126;-74
2022/01/30 12:16:46;;;;;;;10.23;7.03;;;;;;;6.77;58.54;100127.63;5015264;28;20471;-72